Lancing, United Kingdom

5:49 AM BST on June 25, 2017 (GMT +0100)
Lancing | | Change Station

Elev 0 ft 50.83 °N, 0.29 °W | Updated 53 seconds ago

Partly Cloudy
Partly Cloudy
59.0 °F
Feels Like 59.0 °F
N
1.9
Wind Variable Wind from West
Gusts 5.0 mph

Today
High -- | Low -- °F
--% Chance of Precip.
Yesterday
High -- | Low -- °F
Precip. -- in
Pressure 29.89 in
Visibility 6.2 miles
Clouds Few 1700 ft
Mostly Cloudy 4400 ft
Dew Point 55 °F
Humidity 85%
Rainfall Not available.
Snow Depth Not available.
4:48 AM 9:18 PM
New Moon, 2% visible
METAR EGKK 250420Z 22004KT 190V260 9999 FEW017 BKN044 15/12 Q1012
Pressure 29.89 in
Visibility 6.2 miles
Clouds Few 1700 ft
Mostly Cloudy 4400 ft
Dew Point 55 °F
Humidity 85%
Rainfall Not available.
Snow Depth Not available.
4:48 AM 9:18 PM
New Moon, 2% visible
METAR EGKK 250420Z 22004KT 190V260 9999 FEW017 BKN044 15/12 Q1012

Get Severe Weather Alerts

Thanks for signing up!

Be on the lookout for a verification email in your inbox.

You'll start receiving the daily forecast at 6 AM.

×

10-Day Weather Forecast

×

Almanac

Astronomy

Jun. 25, 2017 Rise Set
Actual Time
Civil Twilight
Nautical Twilight
Astronomical Twilight
Moon
Length of Visible Light
Length of Day
Tomorrow will be .
, % of the Moon is Illuminated

Today's Extremes

Country Highs Country Lows

Community

WunderPhotos

Category 6

Welcome to Category 6. This is the collective home for Weather Underground's featured writeups by Dr. Jeff Masters (right), Bob Henson (left), Chris Burt, and other regular contributors.

Nearby

Air Quality

  Air Quality AQ Index Pollutant
Not available.

Snow Depth

Station Depth Elevation

Earthquake Activity

City Distance Mag. Time & Date
Minimum magnitude displayed is 2.5.

Coastal Water Temperatures

Place Temperature

Stations

Nearby Weather Stations

Station Location Temp. Windchill Dew Point Humidity Wind Precip. Elev Updated Type